sensor_id;sensor_type;location;lat;lon;timestamp;pressure;altitude;pressure_sealevel;temperature
76895;BMP280;65855;42.030;13.078;2022-12-07T13:43:01;93081.44;;;20.63
76895;BMP280;65855;42.030;13.078;2022-12-07T13:45:32;93086.47;;;19.98
76895;BMP280;65855;42.030;13.078;2022-12-07T13:48:45;93085.88;;;19.82
76895;BMP280;65855;42.030;13.078;2022-12-07T13:51:26;93083.19;;;18.31
76895;BMP280;65855;42.030;13.078;2022-12-07T13:53:55;93092.66;;;16.22
76895;BMP280;65855;42.030;13.078;2022-12-07T13:56:23;93094.16;;;15.17
76895;BMP280;65855;42.030;13.078;2022-12-07T13:58:51;93099.34;;;16.53
76895;BMP280;65855;42.030;13.078;2022-12-07T14:01:16;93099.44;;;17.90
76895;BMP280;65855;42.030;13.078;2022-12-07T14:03:42;93093.84;;;18.52
76895;BMP280;65855;42.030;13.078;2022-12-07T14:08:40;93085.56;;;18.21
76895;BMP280;65855;42.030;13.078;2022-12-07T14:11:06;93096.09;;;17.10
76895;BMP280;65855;42.030;13.078;2022-12-07T14:13:38;93089.78;;;18.88
76895;BMP280;65855;42.030;13.078;2022-12-07T14:16:22;93093.78;;;16.78
76895;BMP280;65855;42.030;13.078;2022-12-07T14:18:49;93090.06;;;17.03
76895;BMP280;65855;42.030;13.078;2022-12-07T14:21:20;93088.53;;;15.94
76895;BMP280;65855;42.030;13.078;2022-12-07T14:26:33;93100.25;;;14.61
76895;BMP280;65855;42.030;13.078;2022-12-07T14:31:53;93103.16;;;13.34
76895;BMP280;65855;42.030;13.078;2022-12-07T14:34:23;93104.34;;;12.99
76895;BMP280;65855;42.030;13.078;2022-12-07T14:36:49;93113.28;;;12.89
76895;BMP280;65855;42.030;13.078;2022-12-07T14:39:14;93113.44;;;12.84
76895;BMP280;65855;42.030;13.078;2022-12-07T14:41:40;93114.06;;;12.81
76895;BMP280;65855;42.030;13.078;2022-12-07T14:44:19;93117.78;;;12.58
76895;BMP280;65855;42.030;13.078;2022-12-07T14:46:45;93113.03;;;12.48
76895;BMP280;65855;42.030;13.078;2022-12-07T14:49:10;93119.16;;;12.48
76895;BMP280;65855;42.030;13.078;2022-12-07T14:51:38;93112.13;;;12.28
76895;BMP280;65855;42.030;13.078;2022-12-07T14:54:06;93111.09;;;12.21
76895;BMP280;65855;42.030;13.078;2022-12-07T14:57:36;93113.16;;;12.02
76895;BMP280;65855;42.030;13.078;2022-12-07T15:00:02;93117.91;;;11.95
76895;BMP280;65855;42.030;13.078;2022-12-07T15:02:27;93119.09;;;11.73
76895;BMP280;65855;42.030;13.078;2022-12-07T15:04:53;93126.66;;;11.64
76895;BMP280;65855;42.030;13.078;2022-12-07T15:07:20;93126.00;;;11.51
76895;BMP280;65855;42.030;13.078;2022-12-07T15:09:47;93119.41;;;11.33
76895;BMP280;65855;42.030;13.078;2022-12-07T15:12:12;93121.59;;;11.26
76895;BMP280;65855;42.030;13.078;2022-12-07T15:14:38;93131.72;;;11.04
76895;BMP280;65855;42.030;13.078;2022-12-07T15:17:03;93132.16;;;10.68
76895;BMP280;65855;42.030;13.078;2022-12-07T15:19:29;93126.88;;;10.56
76895;BMP280;65855;42.030;13.078;2022-12-07T15:21:54;93124.91;;;10.10
76895;BMP280;65855;42.030;13.078;2022-12-07T15:24:20;93133.28;;;10.19
76895;BMP280;65855;42.030;13.078;2022-12-07T15:26:46;93134.91;;;10.37
76895;BMP280;65855;42.030;13.078;2022-12-07T15:29:12;93140.44;;;10.26
76895;BMP280;65855;42.030;13.078;2022-12-07T15:31:39;93139.56;;;10.08
76895;BMP280;65855;42.030;13.078;2022-12-07T15:34:05;93146.03;;;9.88
76895;BMP280;65855;42.030;13.078;2022-12-07T15:36:32;93143.63;;;9.57
76895;BMP280;65855;42.030;13.078;2022-12-07T15:38:58;93145.84;;;9.45
76895;BMP280;65855;42.030;13.078;2022-12-07T15:41:23;93145.69;;;9.41
76895;BMP280;65855;42.030;13.078;2022-12-07T15:43:49;93156.28;;;9.78
76895;BMP280;65855;42.030;13.078;2022-12-07T15:46:34;93151.38;;;9.47
76895;BMP280;65855;42.030;13.078;2022-12-07T15:49:00;93148.94;;;9.29
76895;BMP280;65855;42.030;13.078;2022-12-07T15:51:26;93159.00;;;9.15
76895;BMP280;65855;42.030;13.078;2022-12-07T15:53:52;93153.50;;;9.00
76895;BMP280;65855;42.030;13.078;2022-12-07T15:56:17;93161.41;;;9.07
76895;BMP280;65855;42.030;13.078;2022-12-07T15:58:43;93152.38;;;9.19
76895;BMP280;65855;42.030;13.078;2022-12-07T16:01:13;93157.28;;;8.98
76895;BMP280;65855;42.030;13.078;2022-12-07T16:03:38;93152.56;;;9.89
76895;BMP280;65855;42.030;13.078;2022-12-07T16:06:04;93148.94;;;9.15
76895;BMP280;65855;42.030;13.078;2022-12-07T16:08:30;93149.22;;;9.14
76895;BMP280;65855;42.030;13.078;2022-12-07T16:10:55;93145.31;;;9.08
76895;BMP280;65855;42.030;13.078;2022-12-07T16:13:20;93150.47;;;8.85
76895;BMP280;65855;42.030;13.078;2022-12-07T16:15:46;93147.25;;;8.66
76895;BMP280;65855;42.030;13.078;2022-12-07T16:18:11;93151.91;;;8.41
76895;BMP280;65855;42.030;13.078;2022-12-07T16:20:37;93161.31;;;8.36
76895;BMP280;65855;42.030;13.078;2022-12-07T16:23:03;93162.19;;;8.27
76895;BMP280;65855;42.030;13.078;2022-12-07T16:25:29;93169.50;;;8.41
76895;BMP280;65855;42.030;13.078;2022-12-07T16:27:54;93163.38;;;8.47
76895;BMP280;65855;42.030;13.078;2022-12-07T16:30:20;93163.09;;;8.17
76895;BMP280;65855;42.030;13.078;2022-12-07T16:32:46;93154.19;;;8.07
76895;BMP280;65855;42.030;13.078;2022-12-07T16:35:12;93155.78;;;8.34
76895;BMP280;65855;42.030;13.078;2022-12-07T16:37:38;93159.38;;;8.78
76895;BMP280;65855;42.030;13.078;2022-12-07T16:40:04;93152.19;;;8.40
76895;BMP280;65855;42.030;13.078;2022-12-07T16:42:33;93145.97;;;8.19
76895;BMP280;65855;42.030;13.078;2022-12-07T16:45:00;93156.88;;;7.92
76895;BMP280;65855;42.030;13.078;2022-12-07T16:47:26;93160.47;;;7.86
76895;BMP280;65855;42.030;13.078;2022-12-07T16:49:51;93154.28;;;7.97
76895;BMP280;65855;42.030;13.078;2022-12-07T16:52:18;93156.34;;;8.13
76895;BMP280;65855;42.030;13.078;2022-12-07T16:54:44;93169.44;;;7.92
76895;BMP280;65855;42.030;13.078;2022-12-07T16:57:09;93171.50;;;7.67
76895;BMP280;65855;42.030;13.078;2022-12-07T16:59:35;93163.38;;;7.93
76895;BMP280;65855;42.030;13.078;2022-12-07T17:02:00;93149.00;;;7.98
76895;BMP280;65855;42.030;13.078;2022-12-07T17:04:26;93147.69;;;8.06
76895;BMP280;65855;42.030;13.078;2022-12-07T17:06:51;93157.22;;;7.86
76895;BMP280;65855;42.030;13.078;2022-12-07T17:09:17;93149.00;;;7.80
76895;BMP280;65855;42.030;13.078;2022-12-07T17:11:44;93155.97;;;7.83
76895;BMP280;65855;42.030;13.078;2022-12-07T17:14:09;93160.47;;;7.86
76895;BMP280;65855;42.030;13.078;2022-12-07T17:16:53;93154.63;;;7.90
76895;BMP280;65855;42.030;13.078;2022-12-07T17:19:19;93159.88;;;7.71
76895;BMP280;65855;42.030;13.078;2022-12-07T17:21:45;93153.75;;;7.59
76895;BMP280;65855;42.030;13.078;2022-12-07T17:24:13;93156.84;;;7.74
76895;BMP280;65855;42.030;13.078;2022-12-07T17:26:39;93157.53;;;7.79
76895;BMP280;65855;42.030;13.078;2022-12-07T17:29:05;93161.09;;;7.55
76895;BMP280;65855;42.030;13.078;2022-12-07T17:31:34;93157.09;;;7.31
76895;BMP280;65855;42.030;13.078;2022-12-07T17:34:00;93168.63;;;7.32
76895;BMP280;65855;42.030;13.078;2022-12-07T17:36:28;93161.25;;;7.18
76895;BMP280;65855;42.030;13.078;2022-12-07T17:38:54;93161.28;;;7.41
76895;BMP280;65855;42.030;13.078;2022-12-07T17:41:22;93158.97;;;7.44
76895;BMP280;65855;42.030;13.078;2022-12-07T17:44:10;93161.66;;;7.70
76895;BMP280;65855;42.030;13.078;2022-12-07T17:46:36;93156.09;;;7.32
76895;BMP280;65855;42.030;13.078;2022-12-07T17:49:02;93161.63;;;7.29
76895;BMP280;65855;42.030;13.078;2022-12-07T17:51:28;93162.53;;;6.64
76895;BMP280;65855;42.030;13.078;2022-12-07T17:54:13;93168.00;;;6.33
76895;BMP280;65855;42.030;13.078;2022-12-07T17:56:38;93170.06;;;6.26
76895;BMP280;65855;42.030;13.078;2022-12-07T17:59:04;93166.75;;;6.36
76895;BMP280;65855;42.030;13.078;2022-12-07T18:01:31;93171.38;;;6.52
76895;BMP280;65855;42.030;13.078;2022-12-07T18:03:56;93168.41;;;6.50
76895;BMP280;65855;42.030;13.078;2022-12-07T18:06:22;93168.19;;;6.74
76895;BMP280;65855;42.030;13.078;2022-12-07T18:08:48;93171.91;;;7.05
76895;BMP280;65855;42.030;13.078;2022-12-07T18:11:13;93174.72;;;6.98
76895;BMP280;65855;42.030;13.078;2022-12-07T18:13:39;93174.16;;;6.13
76895;BMP280;65855;42.030;13.078;2022-12-07T18:16:10;93187.53;;;5.99
76895;BMP280;65855;42.030;13.078;2022-12-07T18:18:37;93187.22;;;6.05
76895;BMP280;65855;42.030;13.078;2022-12-07T18:21:04;93186.31;;;6.29
76895;BMP280;65855;42.030;13.078;2022-12-07T18:23:29;93189.50;;;6.39
76895;BMP280;65855;42.030;13.078;2022-12-07T18:25:55;93191.16;;;6.53
76895;BMP280;65855;42.030;13.078;2022-12-07T18:28:21;93191.03;;;6.35
76895;BMP280;65855;42.030;13.078;2022-12-07T18:30:46;93198.66;;;5.63
76895;BMP280;65855;42.030;13.078;2022-12-07T18:33:19;93192.88;;;5.68
76895;BMP280;65855;42.030;13.078;2022-12-07T18:35:46;93188.31;;;5.84
76895;BMP280;65855;42.030;13.078;2022-12-07T18:38:13;93190.75;;;5.99
76895;BMP280;65855;42.030;13.078;2022-12-07T18:40:39;93186.91;;;5.64
76895;BMP280;65855;42.030;13.078;2022-12-07T18:43:06;93199.75;;;5.33
76895;BMP280;65855;42.030;13.078;2022-12-07T18:45:40;93197.72;;;6.07
76895;BMP280;65855;42.030;13.078;2022-12-07T18:48:07;93195.72;;;6.42
76895;BMP280;65855;42.030;13.078;2022-12-07T18:50:33;93194.47;;;6.44
76895;BMP280;65855;42.030;13.078;2022-12-07T18:53:03;93199.69;;;6.80
76895;BMP280;65855;42.030;13.078;2022-12-07T18:55:29;93200.13;;;6.87
76895;BMP280;65855;42.030;13.078;2022-12-07T18:57:56;93210.69;;;6.84
76895;BMP280;65855;42.030;13.078;2022-12-07T19:00:23;93205.97;;;7.06
76895;BMP280;65855;42.030;13.078;2022-12-07T19:02:50;93199.44;;;7.33
76895;BMP280;65855;42.030;13.078;2022-12-07T19:05:16;93197.88;;;7.42
76895;BMP280;65855;42.030;13.078;2022-12-07T19:07:41;93195.94;;;7.34
76895;BMP280;65855;42.030;13.078;2022-12-07T19:10:07;93191.19;;;7.32
76895;BMP280;65855;42.030;13.078;2022-12-07T19:12:34;93190.91;;;7.11
76895;BMP280;65855;42.030;13.078;2022-12-07T19:14:59;93187.72;;;6.77
76895;BMP280;65855;42.030;13.078;2022-12-07T19:17:25;93181.16;;;6.81
76895;BMP280;65855;42.030;13.078;2022-12-07T19:19:50;93172.53;;;6.92
76895;BMP280;65855;42.030;13.078;2022-12-07T19:22:19;93179.31;;;6.92
76895;BMP280;65855;42.030;13.078;2022-12-07T19:24:46;93181.50;;;6.98
76895;BMP280;65855;42.030;13.078;2022-12-07T19:27:12;93181.94;;;7.05
76895;BMP280;65855;42.030;13.078;2022-12-07T19:29:39;93183.81;;;7.18
76895;BMP280;65855;42.030;13.078;2022-12-07T19:32:05;93191.78;;;7.24
76895;BMP280;65855;42.030;13.078;2022-12-07T19:34:33;93198.66;;;7.37
76895;BMP280;65855;42.030;13.078;2022-12-07T19:36:58;93186.31;;;7.64
76895;BMP280;65855;42.030;13.078;2022-12-07T19:39:24;93186.06;;;7.42
76895;BMP280;65855;42.030;13.078;2022-12-07T19:41:49;93197.84;;;7.18
76895;BMP280;65855;42.030;13.078;2022-12-07T19:44:17;93196.16;;;7.14
76895;BMP280;65855;42.030;13.078;2022-12-07T19:46:45;93196.00;;;7.29
76895;BMP280;65855;42.030;13.078;2022-12-07T19:49:11;93190.72;;;7.30
76895;BMP280;65855;42.030;13.078;2022-12-07T19:51:44;93188.69;;;7.32
76895;BMP280;65855;42.030;13.078;2022-12-07T19:54:11;93191.13;;;7.37
76895;BMP280;65855;42.030;13.078;2022-12-07T19:56:37;93188.41;;;7.57
76895;BMP280;65855;42.030;13.078;2022-12-07T19:59:02;93188.03;;;7.68
76895;BMP280;65855;42.030;13.078;2022-12-07T20:01:28;93191.75;;;7.70
76895;BMP280;65855;42.030;13.078;2022-12-07T20:03:55;93183.56;;;7.83
76895;BMP280;65855;42.030;13.078;2022-12-07T20:06:21;93172.84;;;7.78
76895;BMP280;65855;42.030;13.078;2022-12-07T20:08:47;93183.06;;;7.63
76895;BMP280;65855;42.030;13.078;2022-12-07T20:11:14;93186.50;;;7.49
76895;BMP280;65855;42.030;13.078;2022-12-07T20:13:59;93192.91;;;7.78
76895;BMP280;65855;42.030;13.078;2022-12-07T20:16:24;93182.06;;;8.05
76895;BMP280;65855;42.030;13.078;2022-12-07T20:18:51;93185.41;;;8.19
76895;BMP280;65855;42.030;13.078;2022-12-07T20:21:17;93185.47;;;8.14
76895;BMP280;65855;42.030;13.078;2022-12-07T20:23:42;93191.22;;;8.15
76895;BMP280;65855;42.030;13.078;2022-12-07T20:26:10;93188.03;;;8.09
76895;BMP280;65855;42.030;13.078;2022-12-07T20:28:36;93194.19;;;7.98
76895;BMP280;65855;42.030;13.078;2022-12-07T20:31:02;93187.84;;;7.83
76895;BMP280;65855;42.030;13.078;2022-12-07T20:33:28;93192.22;;;7.54
76895;BMP280;65855;42.030;13.078;2022-12-07T20:36:02;93185.22;;;7.51
76895;BMP280;65855;42.030;13.078;2022-12-07T20:38:28;93194.25;;;7.52
76895;BMP280;65855;42.030;13.078;2022-12-07T20:40:59;93186.78;;;7.47
76895;BMP280;65855;42.030;13.078;2022-12-07T20:43:25;93186.44;;;7.54
76895;BMP280;65855;42.030;13.078;2022-12-07T20:45:50;93183.88;;;7.59
76895;BMP280;65855;42.030;13.078;2022-12-07T20:48:16;93185.84;;;7.62
76895;BMP280;65855;42.030;13.078;2022-12-07T20:50:41;93183.28;;;7.67
76895;BMP280;65855;42.030;13.078;2022-12-07T20:53:07;93185.16;;;7.79
76895;BMP280;65855;42.030;13.078;2022-12-07T20:55:33;93177.00;;;7.87
76895;BMP280;65855;42.030;13.078;2022-12-07T20:57:59;93172.41;;;7.94
76895;BMP280;65855;42.030;13.078;2022-12-07T21:00:24;93173.47;;;7.88
76895;BMP280;65855;42.030;13.078;2022-12-07T21:02:49;93170.97;;;7.88
76895;BMP280;65855;42.030;13.078;2022-12-07T21:05:15;93172.28;;;7.86
76895;BMP280;65855;42.030;13.078;2022-12-07T21:07:42;93185.91;;;7.98
76895;BMP280;65855;42.030;13.078;2022-12-07T21:10:08;93180.50;;;7.91
76895;BMP280;65855;42.030;13.078;2022-12-07T21:12:34;93177.75;;;7.88
76895;BMP280;65855;42.030;13.078;2022-12-07T21:14:59;93176.53;;;7.85
76895;BMP280;65855;42.030;13.078;2022-12-07T21:17:25;93181.72;;;7.70
76895;BMP280;65855;42.030;13.078;2022-12-07T21:19:50;93187.47;;;7.71
76895;BMP280;65855;42.030;13.078;2022-12-07T21:22:16;93201.19;;;7.60
76895;BMP280;65855;42.030;13.078;2022-12-07T21:24:42;93200.16;;;7.61
76895;BMP280;65855;42.030;13.078;2022-12-07T21:27:07;93190.41;;;7.60
76895;BMP280;65855;42.030;13.078;2022-12-07T21:29:33;93190.59;;;7.63
76895;BMP280;65855;42.030;13.078;2022-12-07T21:32:00;93205.47;;;7.78
76895;BMP280;65855;42.030;13.078;2022-12-07T21:34:25;93208.69;;;7.60
76895;BMP280;65855;42.030;13.078;2022-12-07T21:36:51;93207.44;;;7.81
76895;BMP280;65855;42.030;13.078;2022-12-07T21:39:16;93207.44;;;7.81
76895;BMP280;65855;42.030;13.078;2022-12-07T21:41:42;93214.59;;;7.23
76895;BMP280;65855;42.030;13.078;2022-12-07T21:44:08;93211.50;;;7.08
76895;BMP280;65855;42.030;13.078;2022-12-07T21:46:37;93219.19;;;7.16
76895;BMP280;65855;42.030;13.078;2022-12-07T21:49:06;93216.38;;;7.22
76895;BMP280;65855;42.030;13.078;2022-12-07T21:51:32;93216.84;;;7.24
76895;BMP280;65855;42.030;13.078;2022-12-07T21:53:59;93208.56;;;7.24
76895;BMP280;65855;42.030;13.078;2022-12-07T21:56:30;93209.97;;;7.07
76895;BMP280;65855;42.030;13.078;2022-12-07T21:59:09;93209.16;;;7.16
76895;BMP280;65855;42.030;13.078;2022-12-07T22:01:36;93215.34;;;7.23
76895;BMP280;65855;42.030;13.078;2022-12-07T22:04:07;93220.78;;;7.30
76895;BMP280;65855;42.030;13.078;2022-12-07T22:06:34;93216.50;;;7.08
76895;BMP280;65855;42.030;13.078;2022-12-07T22:08:59;93220.41;;;7.18
76895;BMP280;65855;42.030;13.078;2022-12-07T22:11:25;93221.84;;;7.24
76895;BMP280;65855;42.030;13.078;2022-12-07T22:13:50;93226.47;;;7.13
76895;BMP280;65855;42.030;13.078;2022-12-07T22:16:34;93241.50;;;7.13
76895;BMP280;65855;42.030;13.078;2022-12-07T22:19:00;93235.84;;;7.30
76895;BMP280;65855;42.030;13.078;2022-12-07T22:21:26;93231.88;;;7.24
76895;BMP280;65855;42.030;13.078;2022-12-07T22:23:52;93233.31;;;7.30
76895;BMP280;65855;42.030;13.078;2022-12-07T22:26:18;93233.03;;;7.60
76895;BMP280;65855;42.030;13.078;2022-12-07T22:28:44;93230.25;;;7.61
76895;BMP280;65855;42.030;13.078;2022-12-07T22:31:12;93228.38;;;7.71
76895;BMP280;65855;42.030;13.078;2022-12-07T22:33:38;93221.34;;;7.50
76895;BMP280;65855;42.030;13.078;2022-12-07T22:36:05;93221.94;;;7.66
76895;BMP280;65855;42.030;13.078;2022-12-07T22:38:31;93218.88;;;7.68
76895;BMP280;65855;42.030;13.078;2022-12-07T22:40:57;93221.53;;;7.77
76895;BMP280;65855;42.030;13.078;2022-12-07T22:43:23;93228.25;;;7.58
76895;BMP280;65855;42.030;13.078;2022-12-07T22:45:56;93218.47;;;7.62
76895;BMP280;65855;42.030;13.078;2022-12-07T22:48:22;93225.72;;;7.63
76895;BMP280;65855;42.030;13.078;2022-12-07T22:50:48;93229.00;;;7.82
76895;BMP280;65855;42.030;13.078;2022-12-07T22:53:13;93222.25;;;8.00
76895;BMP280;65855;42.030;13.078;2022-12-07T22:55:39;93222.50;;;8.04
76895;BMP280;65855;42.030;13.078;2022-12-07T22:58:05;93220.97;;;8.03
76895;BMP280;65855;42.030;13.078;2022-12-07T23:00:31;93220.97;;;8.03
76895;BMP280;65855;42.030;13.078;2022-12-07T23:02:57;93225.75;;;8.22
76895;BMP280;65855;42.030;13.078;2022-12-07T23:05:23;93225.53;;;8.01
76895;BMP280;65855;42.030;13.078;2022-12-07T23:07:49;93235.53;;;8.06
76895;BMP280;65855;42.030;13.078;2022-12-07T23:10:15;93221.09;;;7.93
76895;BMP280;65855;42.030;13.078;2022-12-07T23:12:40;93217.91;;;8.11
76895;BMP280;65855;42.030;13.078;2022-12-07T23:15:24;93213.34;;;8.13
76895;BMP280;65855;42.030;13.078;2022-12-07T23:17:50;93213.03;;;9.31
76895;BMP280;65855;42.030;13.078;2022-12-07T23:20:15;93211.25;;;9.45
76895;BMP280;65855;42.030;13.078;2022-12-07T23:22:41;93214.38;;;9.11
76895;BMP280;65855;42.030;13.078;2022-12-07T23:25:07;93215.97;;;8.75
76895;BMP280;65855;42.030;13.078;2022-12-07T23:27:34;93199.00;;;8.99
76895;BMP280;65855;42.030;13.078;2022-12-07T23:29:59;93203.09;;;9.53
76895;BMP280;65855;42.030;13.078;2022-12-07T23:32:25;93207.00;;;9.72
76895;BMP280;65855;42.030;13.078;2022-12-07T23:34:50;93193.47;;;9.81
76895;BMP280;65855;42.030;13.078;2022-12-07T23:37:16;93201.41;;;9.75
76895;BMP280;65855;42.030;13.078;2022-12-07T23:39:41;93210.75;;;9.87
76895;BMP280;65855;42.030;13.078;2022-12-07T23:42:06;93200.69;;;9.87
76895;BMP280;65855;42.030;13.078;2022-12-07T23:44:32;93204.13;;;9.78
76895;BMP280;65855;42.030;13.078;2022-12-07T23:46:57;93211.31;;;9.84
76895;BMP280;65855;42.030;13.078;2022-12-07T23:49:23;93212.22;;;9.75
76895;BMP280;65855;42.030;13.078;2022-12-07T23:51:48;93205.97;;;9.73
76895;BMP280;65855;42.030;13.078;2022-12-07T23:54:14;93209.78;;;9.70
76895;BMP280;65855;42.030;13.078;2022-12-07T23:56:39;93213.34;;;9.69
76895;BMP280;65855;42.030;13.078;2022-12-07T23:59:05;93215.00;;;9.60
